Data for 01/13/2006

Time Sea-Level Adjusted Pressure Absolute Pressure Temperature Relative Humidity Dew Point   
(mb) (inHg) (mb) (inHg) (C) (F) (%) (C) (F)
00:05 1018 30.06 847 25.01 -4.3 24.2 48 -13.8 7.2
00:10 1018 30.06 847 25.01 -4.5 23.8 49 -13.7 7.3
00:15 1018 30.06 847 25.01 -4.6 23.7 50 -13.6 7.6
00:20 1018 30.06 847 25.01 -4.6 23.7 50 -13.6 7.5
00:25 1018 30.06 847 25.01 -4.5 23.8 50 -13.5 7.7
00:30 1018 30.06 847 25.01 -4.6 23.8 50 -13.6 7.6
00:35 1018 30.06 847 25.01 -4.5 23.9 49 -13.7 7.4
00:40 1018 30.06 847 25.01 -4.6 23.8 49 -13.6 7.5
00:45 1017 30.03 847 25.01 -4.7 23.6 50 -13.5 7.7
00:50 1017 30.03 847 25.01 -5.1 22.9 53 -13.3 8
00:55 1017 30.03 847 25.01 -5.3 22.5 53 -13.4 7.9
01:00 1017 30.03 847 25.01 -5.5 22.1 53 -13.6 7.6
01:05 1017 30.03 847 25.01 -5.3 22.4 53 -13.6 7.6
01:10 1017 30.03 847 25.01 -5.2 22.7 53 -13.4 7.8
01:15 1017 30.03 847 25.01 -5 23 52 -13.4 7.9
01:20 1017 30.03 847 25.01 -4.8 23.3 52 -13.3 8
01:25 1018 30.06 847 25.01 -4.7 23.5 52 -13.2 8.2
01:30 1017 30.03 847 25.01 -5.1 22.8 54 -13 8.6
01:35 1017 30.03 847 25.01 -5.6 21.9 55 -13.2 8.2
01:40 1017 30.03 847 25.01 -5.5 22 55 -13.2 8.2
01:45 1017 30.03 847 25.01 -5.3 22.5 54 -13.2 8.2
01:50 1017 30.03 847 25.01 -5.2 22.6 54 -13.2 8.3
01:55 1017 30.03 847 25.01 -5.2 22.6 54 -13.1 8.4
02:00 1017 30.03 847 25.01 -5 22.9 54 -13 8.6
02:05 1018 30.06 847 25.01 -4.9 23.2 54 -12.7 9.1
02:10 1018 30.06 847 25.01 -5 23 55 -12.6 9.3
02:15 1018 30.06 847 25.01 -5.1 22.8 56 -12.6 9.3
02:20 1018 30.06 847 25.01 -4.8 23.4 54 -12.7 9.1
02:25 1018 30.06 847 25.01 -4.6 23.7 54 -12.5 9.5
02:30 1018 30.06 847 25.01 -4.6 23.6 54 -12.6 9.3
02:35 1018 30.06 847 25.01 -4.7 23.5 54 -12.7 9.2
02:40 1018 30.06 847 25.01 -5.2 22.7 56 -12.7 9.2
02:45 1018 30.06 847 25.01 -4.6 23.7 51 -13.2 8.2
02:50 1018 30.06 847 25.01 -4 24.7 49 -13.2 8.2
02:55 1018 30.06 847 25.01 -3.7 25.3 52 -12.3 9.9
03:00 1018 30.06 847 25.01 -3.9 25 52 -12.3 9.9
03:05 1018 30.06 847 25.01 -4 24.8 54 -12 10.4
03:10 1018 30.06 847 25.01 -4.5 23.9 56 -12 10.4
03:15 1018 30.06 847 25.01 -4.6 23.7 56 -12.1 10.2
03:20 1018 30.06 847 25.01 -4.7 23.6 56 -12.1 10.2
03:25 1018 30.06 847 25.01 -4.7 23.6 56 -12.1 10.2
03:30 1017 30.03 847 25.01 -4.6 23.8 56 -12.1 10.2
03:35 1017 30.03 846 24.98 -4.2 24.5 55 -11.9 10.5
03:40 1017 30.03 846 24.98 -4.3 24.3 56 -11.8 10.8
03:45 1017 30.03 846 24.98 -4.3 24.2 56 -11.8 10.8
03:50 1017 30.03 846 24.98 -4.5 23.8 58 -11.6 11.1
03:55 1017 30.03 846 24.98 -4.8 23.4 59 -11.5 11.3
04:00 1017 30.03 846 24.98 -4.9 23.2 59 -11.8 10.8
04:05 1017 30.03 846 24.98 -4.8 23.3 58 -11.8 10.7
04:10 1017 30.03 846 24.98 -4.5 23.8 56 -12.1 10.2
04:15 1017 30.03 846 24.98 -4.3 24.3 57 -11.6 11.1
04:20 1017 30.03 846 24.98 -4.1 24.6 57 -11.4 11.5
04:25 1017 30.03 846 24.98 -4.1 24.6 58 -11.2 11.9
04:30 1017 30.03 846 24.98 -4 24.8 58 -11.2 11.9
04:35 1017 30.03 846 24.98 -3.9 25.1 56 -11.4 11.6
04:40 1017 30.03 847 25.01 -3.6 25.4 56 -11.2 11.9
04:45 1017 30.03 847 25.01 -3.6 25.5 57 -10.9 12.4
04:50 1017 30.03 847 25.01 -3.5 25.7 58 -10.7 12.7
04:55 1018 30.06 847 25.01 -3.5 25.8 59 -10.4 13.3
05:00 1018 30.06 847 25.01 -3.9 25 59 -10.7 12.7
05:05 1018 30.06 847 25.01 -4.1 24.7 61 -10.6 13
05:10 1018 30.06 847 25.01 -4.1 24.7 59 -10.8 12.5
05:15 1018 30.06 847 25.01 -4.1 24.6 59 -11.1 12.1
05:20 1018 30.06 847 25.01 -3.5 25.6 57 -10.9 12.4
05:25 1018 30.06 847 25.01 -3.7 25.4 58 -10.9 12.5
05:30 1018 30.06 847 25.01 -3.8 25.1 59 -10.7 12.7
05:35 1018 30.06 847 25.01 -3.8 25.2 59 -10.7 12.8
05:40 1018 30.06 847 25.01 -3.5 25.7 56 -11 12.2
05:45 1018 30.06 847 25.01 -3.4 25.8 55 -11.1 11.9
05:50 1017 30.03 847 25.01 -3.1 26.4 59 -10 14
05:55 1017 30.03 847 25.01 -3.5 25.8 61 -9.9 14.2
06:00 1017 30.03 847 25.01 -3.2 26.3 60 -9.8 14.3
06:05 1017 30.03 847 25.01 -3.4 25.9 60 -10.1 13.7
06:10 1017 30.03 847 25.01 -3.7 25.3 61 -10.2 13.6
06:15 1017 30.03 847 25.01 -3.8 25.2 62 -10.1 13.9
06:20 1017 30.03 847 25.01 -3.6 25.6 57 -10.9 12.3
06:25 1017 30.03 847 25.01 -3 26.6 57 -10.4 13.4
06:30 1017 30.03 847 25.01 -2.9 26.7 58 -10.2 13.7
06:35 1017 30.03 847 25.01 -2.7 27.1 59 -9.7 14.6
06:40 1017 30.03 847 25.01 -2.4 27.6 59 -9.4 15.1
06:45 1018 30.06 847 25.01 -2.3 27.8 59 -9.3 15.3
06:50 1018 30.06 847 25.01 -2.2 28 59 -9.3 15.3
06:55 1018 30.06 847 25.01 -2.3 27.8 60 -9.2 15.5
07:00 1017 30.03 847 25.01 -2.5 27.5 60 -9.2 15.4
07:05 1018 30.06 847 25.01 -2.5 27.6 60 -9.2 15.5
07:10 1018 30.06 847 25.01 -2.5 27.5 60 -9.1 15.6
07:15 1018 30.06 847 25.01 -2.4 27.6 61 -9 15.9
07:20 1018 30.06 847 25.01 -2.3 27.9 57 -9.6 14.7
07:25 1018 30.06 847 25.01 -2.1 28.2 55 -10 13.9
07:30 1018 30.06 847 25.01 -2.2 28 59 -9.1 15.6
07:35 1018 30.06 847 25.01 -1.9 28.5 59 -8.9 15.9
07:40 1018 30.06 847 25.01 -1.7 28.9 57 -9.2 15.4
07:45 1018 30.06 847 25.01 -1.5 29.3 57 -9.1 15.7
07:50 1018 30.06 847 25.01 -1.2 29.8 56 -8.9 16
07:55 1018 30.06 847 25.01 -1 30.2 56 -8.8 16.2
08:00 1018 30.06 847 25.01 -1 30.3 57 -8.4 16.8
08:05 1018 30.06 847 25.01 -1.2 29.8 60 -8.1 17.4
08:10 1018 30.06 847 25.01 -1.5 29.3 61 -8.2 17.3
08:15 1018 30.06 847 25.01 -1.9 28.6 61 -8.5 16.7
08:20 1018 30.06 847 25.01 -1.5 29.3 60 -8.3 17
08:25 1018 30.06 847 25.01 -1.6 29.2 60 -8.4 16.9
08:30 1018 30.06 847 25.01 -1.1 30 59 -8.2 17.3
08:35 1018 30.06 847 25.01 -1 30.2 59 -8.1 17.4
08:40 1018 30.06 847 25.01 -1 30.3 59 -7.9 17.8
08:45 1018 30.06 847 25.01 -0.9 30.3 60 -7.8 17.9
08:50 1018 30.06 847 25.01 -1 30.2 61 -7.7 18.2
08:55 1018 30.06 847 25.01 -1 30.3 61 -7.5 18.4
09:00 1018 30.06 847 25.01 -0.7 30.7 60 -7.6 18.3
09:05 1018 30.06 847 25.01 -1 30.2 61 -7.6 18.3
09:10 1018 30.06 847 25.01 -1.3 29.7 62 -7.7 18.2
09:15 1018 30.06 847 25.01 -1.3 29.7 61 -7.8 18
09:20 1018 30.06 847 25.01 -1.2 29.9 60 -7.9 17.7
09:25 1018 30.06 847 25.01 -1.1 30.1 58 -8.4 16.9
09:30 1018 30.06 847 25.01 -0.8 30.6 54 -8.9 15.9
09:35 1018 30.06 847 25.01 -0.5 31.1 62 -7 19.4
09:40 1018 30.06 847 25.01 -0.8 30.5 64 -6.7 19.9
09:45 1018 30.06 847 25.01 -1 30.3 66 -6.6 20.1
09:50 1018 30.06 847 25.01 -1 30.2 61 -7.5 18.5
09:55 1018 30.06 847 25.01 -0.5 31 59 -7.6 18.2
10:00 1018 30.06 847 25.01 -0 31.9 58 -7.4 18.6
10:05 1018 30.06 847 25.01 0.2 32.3 57 -7.4 18.7
10:10 1018 30.06 847 25.01 0.4 32.8 57 -7 19.4
10:15 1018 30.06 847 25.01 0.5 32.9 58 -6.8 19.8
10:20 1018 30.06 847 25.01 0.7 33.2 55 -7.3 18.8
10:25 1018 30.06 847 25.01 1.2 34.1 53 -7.4 18.7
10:30 1018 30.06 847 25.01 1.9 35.5 50 -7.3 18.8
10:35 1018 30.06 847 25.01 2.5 36.5 50 -6.9 19.5
10:40 1018 30.06 847 25.01 3.3 38 46 -7.2 19
10:45 1018 30.06 847 25.01 4.1 39.3 45 -6.9 19.6
10:50 1018 30.06 847 25.01 4.3 39.8 45 -6.6 20
10:55 1018 30.06 847 25.01 4.1 39.3 45 -6.7 19.9
11:00 1018 30.06 847 25.01 3.9 39.1 47 -6.5 20.3
11:05 1017 30.03 847 25.01 3.9 39.1 47 -6.5 20.3
11:10 1017 30.03 847 25.01 3.8 38.9 46 -6.6 20.1
11:15 1017 30.03 847 25.01 3.9 39 47 -6.4 20.5
11:20 1017 30.03 846 24.98 4.4 39.9 45 -6.5 20.3
11:25 1017 30.03 846 24.98 5.3 41.5 43 -6.2 20.8
11:30 1017 30.03 846 24.98 5.7 42.3 42 -6.3 20.7
11:35 1017 30.03 846 24.98 6.1 43 41 -6.2 20.9
11:40 1017 30.03 846 24.98 5.7 42.3 42 -6.1 20.9
11:45 1017 30.03 846 24.98 5.9 42.6 43 -5.8 21.6
11:50 1017 30.03 846 24.98 6 42.8 42 -6 21.1
11:55 1017 30.03 846 24.98 6.2 43.1 41 -6 21.3
12:00 1017 30.03 846 24.98 6 42.9 43 -5.6 21.9
12:05 1017 30.03 846 24.98 6.6 43.9 42 -5.3 22.4
12:10 1016 30 846 24.98 7.6 45.7 40 -5 23.1
12:15 1016 30 846 24.98 8.4 47.1 38 -5 23
12:20 1016 30 845 24.95 8.9 48 37 -4.9 23.2
12:25 1016 30 845 24.95 8.9 48.1 37 -5 22.9
12:30 1016 30 845 24.95 9.2 48.5 36 -5.2 22.6
12:35 1016 30 845 24.95 8.8 47.8 40 -4.1 24.7
12:40 1016 30 845 24.95 7.9 46.3 40 -4.7 23.5
12:45 1016 30 845 24.95 8.1 46.5 41 -4.3 24.2
12:50 1016 30 845 24.95 7.9 46.1 42 -4.2 24.5
12:55 1016 30 845 24.95 7.4 45.3 43 -4.3 24.2
13:00 1016 30 845 24.95 7.3 45.2 42 -4.7 23.6
13:05 1016 30 845 24.95 6.8 44.2 46 -4.1 24.5
13:10 1016 30 845 24.95 6.7 44 45 -4.4 24.2
13:15 1016 30 845 24.95 6.4 43.5 47 -4.1 24.6
13:20 1016 30 845 24.95 5.9 42.6 49 -4 24.8
13:25 1016 30 845 24.95 5.4 41.6 49 -4.6 23.7
13:30 1016 30 845 24.95 5.6 42.1 49 -4.3 24.2
13:35 1016 30 845 24.95 6 42.8 49 -4 24.8
13:40 1016 30 845 24.95 6 42.8 46 -4.7 23.5
13:45 1016 30 845 24.95 6 42.7 48 -4.2 24.5
13:50 1015 29.97 845 24.95 5.9 42.7 47 -4.5 23.9
13:55 1015 29.97 845 24.95 6 42.7 47 -4.4 24.1
14:00 1015 29.97 845 24.95 6 42.9 47 -4.4 24.2
14:05 1016 30 845 24.95 6 42.8 48 -4.1 24.6
14:10 1015 29.97 845 24.95 5.9 42.6 49 -4 24.8
14:15 1016 30 845 24.95 6 42.8 49 -3.8 25.1
14:20 1016 30 845 24.95 5.8 42.4 48 -4.3 24.2
14:25 1016 30 845 24.95 5.6 42.1 48 -4.4 24.1
14:30 1016 30 845 24.95 5.5 41.9 49 -4.3 24.3
14:35 1016 30 845 24.95 5.7 42.2 50 -3.9 24.9
14:40 1016 30 845 24.95 5.7 42.2 49 -4.1 24.6
14:45 1016 30 845 24.95 5.9 42.5 48 -4.3 24.3
14:50 1016 30 845 24.95 5.7 42.3 50 -3.9 25
14:55 1015 29.97 845 24.95 5.8 42.4 50 -3.9 25
15:00 1016 30 845 24.95 5.9 42.6 50 -3.7 25.4
15:05 1016 30 845 24.95 6 42.8 52 -3.2 26.3
15:10 1016 30 845 24.95 6 42.9 52 -3.2 26.2
15:15 1015 29.97 845 24.95 5.9 42.7 50 -3.8 25.2
15:20 1015 29.97 845 24.95 5.4 41.6 52 -3.8 25.2
15:25 1015 29.97 845 24.95 5.3 41.6 54 -3.3 26.1
15:30 1015 29.97 845 24.95 5.4 41.7 54 -3.3 26.1
15:35 1015 29.97 844 24.92 5.1 41.1 53 -3.8 25.2
15:40 1015 29.97 845 24.95 5 40.9 55 -3.4 25.9
15:45 1015 29.97 845 24.95 5 41.1 53 -3.8 25.1
15:50 1015 29.97 845 24.95 5.2 41.4 53 -3.6 25.6
15:55 1015 29.97 845 24.95 5.4 41.7 53 -3.5 25.8
16:00 1015 29.97 845 24.95 5.8 42.5 51 -3.5 25.6
16:05 1015 29.97 845 24.95 5.7 42.2 51 -3.6 25.6
16:10 1016 30 845 24.95 5.2 41.3 53 -3.5 25.7
16:15 1016 30 845 24.95 5.1 41.2 53 -3.6 25.5
16:20 1015 29.97 845 24.95 4.8 40.7 53 -3.9 25
16:25 1015 29.97 845 24.95 4.9 40.8 55 -3.3 26.1
16:30 1015 29.97 845 24.95 4.5 40 55 -3.8 25.1
16:35 1015 29.97 845 24.95 4.2 39.6 56 -3.7 25.3
16:40 1015 29.97 845 24.95 4.5 40.1 53 -4.2 24.4
16:45 1015 29.97 845 24.95 4.6 40.2 54 -3.9 25
16:50 1015 29.97 844 24.92 4.6 40.2 55 -3.8 25.2
16:55 1015 29.97 845 24.95 4.8 40.7 53 -3.8 25.1
17:00 1015 29.97 844 24.92 4.9 40.8 54 -3.7 25.4
17:05 1015 29.97 844 24.92 4.8 40.6 55 -3.5 25.6
17:10 1015 29.97 844 24.92 4.5 40 56 -3.5 25.7
17:15 1015 29.97 844 24.92 4.2 39.6 57 -3.5 25.7
17:20 1015 29.97 844 24.92 3.9 39.1 60 -3.1 26.3
17:25 1015 29.97 844 24.92 3.9 39.1 57 -3.7 25.3
17:30 1015 29.97 844 24.92 4.1 39.4 58 -3.5 25.8
17:35 1015 29.97 844 24.92 4 39.2 58 -3.5 25.6
17:40 1015 29.97 844 24.92 3.9 39 59 -3.4 25.8
17:45 1015 29.97 844 24.92 4.1 39.4 57 -3.6 25.5
17:50 1015 29.97 844 24.92 4.4 39.9 56 -3.6 25.6
17:55 1015 29.97 844 24.92 4.5 40.2 56 -3.5 25.7
18:00 1015 29.97 844 24.92 4.7 40.5 55 -3.5 25.7
18:05 1015 29.97 844 24.92 4.7 40.5 56 -3.4 25.9
18:10 1015 29.97 844 24.92 4.6 40.2 56 -3.4 25.9
18:15 1015 29.97 844 24.92 4.5 40.1 56 -3.5 25.8
18:20 1015 29.97 844 24.92 4.6 40.2 55 -3.6 25.5
18:25 1015 29.97 844 24.92 4.7 40.5 55 -3.5 25.7
18:30 1015 29.97 844 24.92 4.5 40.1 56 -3.4 25.8
18:35 1015 29.97 844 24.92 4.3 39.7 57 -3.4 25.8
18:40 1015 29.97 844 24.92 4.3 39.7 57 -3.4 25.9
18:45 1015 29.97 844 24.92 4.1 39.4 59 -3.2 26.3
18:50 1015 29.97 844 24.92 4 39.3 58 -3.4 25.9
18:55 1014 29.94 844 24.92 4 39.2 59 -3.3 26
19:00 1014 29.94 844 24.92 4.1 39.4 58 -3.5 25.7
19:05 1014 29.94 844 24.92 4.3 39.7 57 -3.4 25.9
19:10 1014 29.94 844 24.92 4.3 39.8 58 -3.3 26.1
19:15 1014 29.94 843 24.89 4.5 40.2 57 -3.3 26.1
19:20 1014 29.94 843 24.89 4.5 40.1 57 -3.3 26
19:25 1014 29.94 843 24.89 4.6 40.3 56 -3.4 25.9
19:30 1014 29.94 843 24.89 4.7 40.4 56 -3.3 26.1
19:35 1014 29.94 843 24.89 4.6 40.3 57 -3.1 26.4
19:40 1014 29.94 843 24.89 4.7 40.5 57 -3.1 26.4
19:45 1014 29.94 843 24.89 4.9 40.8 57 -3 26.6
19:50 1014 29.94 843 24.89 4.9 40.7 57 -2.9 26.8
19:55 1014 29.94 843 24.89 4.8 40.6 58 -2.8 26.9
20:00 1014 29.94 843 24.89 4.8 40.7 58 -2.8 27
20:05 1014 29.94 843 24.89 4.9 40.8 58 -2.8 27
20:10 1014 29.94 843 24.89 4.9 40.7 58 -2.7 27.1
20:15 1014 29.94 843 24.89 4.9 40.8 58 -2.7 27.2
20:20 1014 29.94 843 24.89 5 40.9 58 -2.7 27.2
20:25 1014 29.94 843 24.89 4.9 40.8 59 -2.5 27.4
20:30 1014 29.94 843 24.89 4.8 40.6 59 -2.5 27.5
20:35 1014 29.94 843 24.89 4.7 40.5 59 -2.6 27.3
20:40 1013 29.91 843 24.89 4.9 40.8 58 -2.8 27
20:45 1013 29.91 843 24.89 5 41 58 -2.5 27.4
20:50 1013 29.91 842 24.86 5 41 59 -2.5 27.6
20:55 1013 29.91 842 24.86 4.9 40.7 59 -2.5 27.5
21:00 1013 29.91 842 24.86 4.8 40.6 59 -2.5 27.4
21:05 1013 29.91 842 24.86 4.8 40.7 59 -2.5 27.5
21:10 1013 29.91 842 24.86 4.9 40.8 59 -2.4 27.6
21:15 1013 29.91 842 24.86 5 41 59 -2.4 27.7
21:20 1013 29.91 842 24.86 5.1 41.2 59 -2.3 27.8
21:25 1013 29.91 842 24.86 5.2 41.4 58 -2.3 27.9
21:30 1013 29.91 842 24.86 5.3 41.5 58 -2.2 28
21:35 1013 29.91 842 24.86 5.3 41.5 59 -2.2 28.1
21:40 1013 29.91 842 24.86 5.3 41.5 58 -2.3 27.9
21:45 1013 29.91 842 24.86 5.1 41.2 59 -2.1 28.2
21:50 1013 29.91 842 24.86 4.9 40.9 60 -2.1 28.2
21:55 1013 29.91 842 24.86 4.7 40.5 61 -2.2 28.1
22:00 1013 29.91 842 24.86 4.9 40.8 60 -2.1 28.1
22:05 1013 29.91 842 24.86 4.4 40 63 -2 28.4
22:10 1013 29.91 842 24.86 4.3 39.7 63 -2.2 28
22:15 1013 29.91 842 24.86 4.1 39.4 63 -2.4 27.7
22:20 1013 29.91 842 24.86 4.4 40 62 -2.2 28.1
22:25 1013 29.91 842 24.86 4.3 39.8 62 -2.4 27.7
22:30 1013 29.91 842 24.86 4.7 40.5 60 -2.4 27.7
22:35 1013 29.91 842 24.86 4.8 40.7 59 -2.4 27.7
22:40 1013 29.91 842 24.86 4.7 40.4 61 -2.3 27.9
22:45 1013 29.91 842 24.86 4.3 39.8 61 -2.4 27.7
22:50 1013 29.91 842 24.86 4.2 39.5 63 -2.3 27.9
22:55 1013 29.91 842 24.86 4 39.2 63 -2.4 27.6
23:00 1013 29.91 842 24.86 4.2 39.6 61 -2.5 27.4
23:05 1013 29.91 842 24.86 4.3 39.8 61 -2.5 27.5
23:10 1013 29.91 842 24.86 4.3 39.8 62 -2.4 27.8
23:15 1013 29.91 842 24.86 4.3 39.7 61 -2.6 27.3
23:20 1013 29.91 842 24.86 4 39.2 63 -2.4 27.7
23:25 1013 29.91 842 24.86 3.4 38.2 65 -2.4 27.6
23:30 1013 29.91 842 24.86 3.5 38.3 62 -3.2 26.3
23:35 1013 29.91 842 24.86 3.8 38.9 62 -2.8 26.9
23:40 1012 29.88 842 24.86 3.9 39.1 61 -3 26.7
23:45 1012 29.88 842 24.86 3.8 38.9 61 -2.9 26.7
23:50 1012 29.88 841 24.83 4 39.1 60 -3 26.6
23:55 1012 29.88 841 24.83 4.1 39.5 60 -3 26.6
24:00 1012 29.88 841 24.83 4.1 39.5 59 -3.1 26.4